KLOT/LOT METAR and TAF weather

Enter ICAO airport designator
Station Type Date Time Source
KLOT METAR 2019/10/23 13:35 UTC NOAA

KLOT 231335Z AUTO 22008KT 10SM CLR 05/01 A2996 RMK AO2 T00520013


Station Type Date Time Source
KLOT Decoded METAR 2019/10/23 13:35 UTC NOAA

Chicago/Romeoville, Lewis University Airport, IL, United States (KLOT) 41-36-30N 088-05-39W
Oct 23, 2019 - 09:35 AM EDT / 2019.10.23 1335 UTC
Wind: from the SW (220 degrees) at 9 MPH (8 KT):0
Visibility: 10 mile(s):0
Sky conditions: clear
Temperature: 41.4 F (5.2 C)
Dew Point: 34.3 F (1.3 C)
Relative Humidity: 75%
Pressure (altimeter): 29.96 in. Hg (1014 hPa)
ob: KLOT 231335Z AUTO 22008KT 10SM CLR 05/01 A2996 RMK AO2 T00520013
cycle: 13

Station Type Date Time Source
KLOT TAF UTC NOAA

Error!

Example: see airport list